createdAt,value
2023-01-06T00:00:47.218Z,8.00
2023-01-06T00:03:13.996Z,8.00
2023-01-06T00:05:40.687Z,7.90
2023-01-06T00:08:07.402Z,7.90
2023-01-06T00:10:34.156Z,7.90
2023-01-06T00:13:00.841Z,7.90
2023-01-06T00:15:28.226Z,7.90
2023-01-06T00:17:55.083Z,7.80
2023-01-06T00:20:21.797Z,7.90
2023-01-06T00:22:48.649Z,7.80
2023-01-06T00:25:15.464Z,7.70
2023-01-06T00:27:42.158Z,7.60
2023-01-06T00:30:09.740Z,7.50
2023-01-06T00:32:36.619Z,7.50
2023-01-06T00:35:03.877Z,7.30
2023-01-06T00:37:30.650Z,7.30
2023-01-06T00:39:57.458Z,7.30
2023-01-06T00:42:25.002Z,7.30
2023-01-06T00:44:52.428Z,7.10
2023-01-06T00:47:20.230Z,7.10
2023-01-06T00:49:47.414Z,6.80
2023-01-06T00:52:14.290Z,6.90
2023-01-06T00:54:41.577Z,7.00
2023-01-06T00:57:08.605Z,7.00
2023-01-06T00:59:35.670Z,7.10
2023-01-06T01:02:03.204Z,6.80
2023-01-06T01:04:30.583Z,6.90
2023-01-06T01:06:57.523Z,6.80
2023-01-06T01:09:30.197Z,6.80
2023-01-06T01:12:10.080Z,6.80
2023-01-06T01:14:37.929Z,6.70
2023-01-06T01:17:04.730Z,6.40
2023-01-06T01:19:31.866Z,6.50
2023-01-06T01:21:58.557Z,6.60
2023-01-06T01:24:25.441Z,6.80
2023-01-06T01:26:52.214Z,6.80
2023-01-06T01:29:20.162Z,6.80
2023-01-06T01:31:47.641Z,6.70
2023-01-06T01:34:16.465Z,6.60
2023-01-06T01:36:45.191Z,6.60
2023-01-06T01:39:13.363Z,6.70
2023-01-06T01:41:40.475Z,6.70
2023-01-06T01:44:44.579Z,6.70
2023-01-06T01:47:13.921Z,6.70
2023-01-06T01:49:44.124Z,6.80
2023-01-06T01:52:11.885Z,6.60
2023-01-06T01:54:40.364Z,6.40
2023-01-06T01:57:22.676Z,6.40
2023-01-06T01:59:49.983Z,6.50
2023-01-06T02:02:18.043Z,6.60
2023-01-06T02:04:49.013Z,6.70
2023-01-06T02:07:15.814Z,6.70
2023-01-06T02:09:46.686Z,6.80
2023-01-06T02:12:13.624Z,6.80
2023-01-06T02:14:40.332Z,6.80
2023-01-06T02:17:46.420Z,6.80
2023-01-06T02:20:40.920Z,6.80
2023-01-06T02:23:07.584Z,6.70
2023-01-06T02:26:24.736Z,6.50
2023-01-06T02:29:03.523Z,6.50
2023-01-06T02:31:49.080Z,6.50
2023-01-06T02:34:58.614Z,6.50
2023-01-06T02:37:47.596Z,6.50
2023-01-06T02:40:30.432Z,6.50
2023-01-06T02:43:12.409Z,6.50
2023-01-06T02:45:57.396Z,6.50
2023-01-06T02:48:36.464Z,6.60
2023-01-06T02:51:12.156Z,6.60
2023-01-06T02:54:00.636Z,6.60
2023-01-06T02:56:32.278Z,6.50
2023-01-06T02:59:07.753Z,6.50
2023-01-06T03:01:43.994Z,6.60
2023-01-06T03:04:20.690Z,6.50
2023-01-06T03:06:50.529Z,6.60
2023-01-06T03:09:22.461Z,6.60
2023-01-06T03:11:51.517Z,6.50
2023-01-06T03:14:30.335Z,6.40
2023-01-06T03:16:57.036Z,6.30
2023-01-06T03:19:24.582Z,6.30
2023-01-06T03:21:52.037Z,6.30
2023-01-06T03:24:18.877Z,6.30
2023-01-06T03:26:48.341Z,6.40
2023-01-06T03:29:17.927Z,6.40
2023-01-06T03:31:52.923Z,6.10
2023-01-06T03:34:19.622Z,6.10
2023-01-06T03:37:13.843Z,6.10
2023-01-06T03:39:48.849Z,6.10
2023-01-06T03:43:09.416Z,6.10
2023-01-06T03:45:46.084Z,6.10
2023-01-06T03:48:24.529Z,6.00
2023-01-06T03:51:09.868Z,5.90
2023-01-06T03:53:40.678Z,5.70
2023-01-06T03:56:30.964Z,5.60
2023-01-06T03:59:01.074Z,5.80
2023-01-06T04:01:29.658Z,5.80
2023-01-06T04:03:56.640Z,5.90
2023-01-06T04:06:23.685Z,6.00
2023-01-06T04:08:50.678Z,6.00
2023-01-06T04:11:37.281Z,6.00
2023-01-06T04:14:04.145Z,5.90
2023-01-06T04:16:30.921Z,5.80
2023-01-06T04:18:57.706Z,5.70
2023-01-06T04:21:24.412Z,5.70
2023-01-06T04:23:51.177Z,5.60
2023-01-06T04:26:17.913Z,5.50
2023-01-06T04:28:44.707Z,5.50
2023-01-06T04:31:12.018Z,5.60
2023-01-06T04:33:39.061Z,5.80
2023-01-06T04:36:06.421Z,5.50
2023-01-06T04:38:33.154Z,5.60
2023-01-06T04:40:59.877Z,5.50
2023-01-06T04:43:26.609Z,5.60
2023-01-06T04:45:53.592Z,5.70
2023-01-06T04:48:20.343Z,5.80
2023-01-06T04:50:47.038Z,5.80
2023-01-06T04:53:13.922Z,5.80
2023-01-06T04:55:41.639Z,5.90
2023-01-06T04:58:09.820Z,6.20
2023-01-06T05:00:36.762Z,6.30
2023-01-06T05:03:03.529Z,6.50
2023-01-06T05:05:30.263Z,6.60
2023-01-06T05:07:57.035Z,6.70
2023-01-06T05:10:23.766Z,6.80
2023-01-06T05:12:50.473Z,6.80
2023-01-06T05:15:17.286Z,6.90
2023-01-06T05:17:43.985Z,7.00
2023-01-06T05:20:11.032Z,7.00
2023-01-06T05:22:37.781Z,7.10
2023-01-06T05:25:04.738Z,7.10
2023-01-06T05:27:31.454Z,7.10
2023-01-06T05:29:58.177Z,7.10
2023-01-06T05:32:24.919Z,7.20
2023-01-06T05:34:51.775Z,7.30
2023-01-06T05:37:18.469Z,7.20
2023-01-06T05:39:45.139Z,7.10
2023-01-06T05:42:11.895Z,7.20
2023-01-06T05:44:39.020Z,7.20
2023-01-06T05:47:05.724Z,7.20
2023-01-06T05:49:32.423Z,7.20
2023-01-06T05:51:59.151Z,7.20
2023-01-06T05:54:25.900Z,7.00
2023-01-06T05:56:52.566Z,7.00
2023-01-06T05:59:19.321Z,7.10
2023-01-06T06:01:46.128Z,7.00
2023-01-06T06:04:13.701Z,7.00
2023-01-06T06:06:40.447Z,7.00
2023-01-06T06:09:07.181Z,7.00
2023-01-06T06:11:33.839Z,7.00
2023-01-06T06:14:00.505Z,7.00
2023-01-06T06:16:28.570Z,7.00
2023-01-06T06:18:57.688Z,7.00
2023-01-06T06:21:29.979Z,6.90
2023-01-06T06:23:58.822Z,6.90
2023-01-06T06:26:26.006Z,6.80
2023-01-06T06:28:52.855Z,6.80
2023-01-06T06:31:24.993Z,6.80
2023-01-06T06:33:53.533Z,6.80
2023-01-06T06:36:20.377Z,6.80
2023-01-06T06:38:48.868Z,6.90
2023-01-06T06:41:16.226Z,6.80
2023-01-06T06:43:43.185Z,6.80
2023-01-06T06:46:10.651Z,6.80
2023-01-06T06:48:38.327Z,6.70
2023-01-06T06:51:07.881Z,6.70
2023-01-06T06:53:35.384Z,6.50
2023-01-06T06:56:03.704Z,6.60
2023-01-06T06:58:30.441Z,6.60
2023-01-06T07:00:57.217Z,6.60
2023-01-06T07:03:25.233Z,6.60
2023-01-06T07:05:52.903Z,6.60
2023-01-06T07:08:19.871Z,6.60
2023-01-06T07:10:46.583Z,6.50
2023-01-06T07:13:13.459Z,6.50
2023-01-06T07:15:40.188Z,6.50
2023-01-06T07:18:07.227Z,6.40
2023-01-06T07:20:36.163Z,6.50
2023-01-06T07:23:03.480Z,6.40
2023-01-06T07:25:30.755Z,6.30
2023-01-06T07:27:59.862Z,6.30
2023-01-06T07:30:28.097Z,6.30
2023-01-06T07:32:54.797Z,6.30
2023-01-06T07:35:21.531Z,6.30
2023-01-06T07:37:48.387Z,6.30
2023-01-06T07:40:15.487Z,6.40
2023-01-06T07:42:42.245Z,6.50
2023-01-06T07:45:09.780Z,6.60
2023-01-06T07:47:36.710Z,6.40
2023-01-06T07:50:04.668Z,6.30
2023-01-06T07:52:31.898Z,6.20
2023-01-06T07:54:59.533Z,6.30
2023-01-06T07:57:30.112Z,6.20
2023-01-06T07:59:57.207Z,6.10
2023-01-06T08:02:24.136Z,6.30
2023-01-06T08:04:50.907Z,6.30
2023-01-06T08:07:18.093Z,6.40
2023-01-06T08:09:44.876Z,6.40
2023-01-06T08:12:12.319Z,6.40
2023-01-06T08:14:39.098Z,6.40
2023-01-06T08:17:06.196Z,6.40
2023-01-06T08:19:33.214Z,6.40
2023-01-06T08:21:59.993Z,6.50
2023-01-06T08:24:26.856Z,6.50
2023-01-06T08:26:53.605Z,7.40
2023-01-06T08:29:20.366Z,6.40
2023-01-06T08:31:47.104Z,6.40
2023-01-06T08:34:14.685Z,6.50
2023-01-06T08:36:43.268Z,6.60
2023-01-06T08:39:10.506Z,6.70
2023-01-06T08:41:37.893Z,6.70
2023-01-06T08:44:04.885Z,6.70
2023-01-06T08:47:12.224Z,6.80
2023-01-06T08:49:38.890Z,6.90
2023-01-06T08:52:05.694Z,7.00
2023-01-06T08:54:32.402Z,6.90
2023-01-06T08:56:59.048Z,7.50
2023-01-06T08:59:25.733Z,7.00
2023-01-06T09:01:52.480Z,7.10
2023-01-06T09:04:19.492Z,7.10
2023-01-06T09:06:47.333Z,7.20
2023-01-06T09:09:14.032Z,7.20
2023-01-06T09:11:44.898Z,7.30
2023-01-06T09:14:16.282Z,7.40
2023-01-06T09:16:43.041Z,7.40
2023-01-06T09:19:12.494Z,7.60
2023-01-06T09:21:39.742Z,7.60
2023-01-06T09:24:06.691Z,7.60
2023-01-06T09:26:34.192Z,7.60
2023-01-06T09:29:00.822Z,7.60
2023-01-06T09:31:27.498Z,7.60
2023-01-06T09:33:54.516Z,7.70
2023-01-06T09:36:21.672Z,7.70
2023-01-06T09:38:48.297Z,7.80
2023-01-06T09:41:33.645Z,7.80
2023-01-06T09:44:09.533Z,7.80
2023-01-06T09:46:40.404Z,7.80
2023-01-06T09:49:16.307Z,7.80
2023-01-06T09:51:44.107Z,7.80
2023-01-06T09:54:17.058Z,7.80
2023-01-06T09:56:49.204Z,8.10
2023-01-06T09:59:24.949Z,7.80
2023-01-06T10:01:52.179Z,7.80
2023-01-06T10:04:28.214Z,7.90
2023-01-06T10:07:04.449Z,7.90
2023-01-06T10:09:54.226Z,8.00
2023-01-06T10:12:42.852Z,8.00
2023-01-06T10:15:31.523Z,8.00
2023-01-06T10:18:21.257Z,8.10
2023-01-06T10:21:10.062Z,8.10
2023-01-06T10:24:03.134Z,8.10
2023-01-06T10:26:32.279Z,8.10
2023-01-06T10:29:09.869Z,8.20
2023-01-06T10:31:39.849Z,8.30
2023-01-06T10:34:22.664Z,8.40
2023-01-06T10:37:03.806Z,8.40
2023-01-06T10:39:33.735Z,8.50
2023-01-06T10:42:47.334Z,8.80
2023-01-06T10:45:15.042Z,8.50
2023-01-06T10:47:43.523Z,8.60
2023-01-06T10:50:15.727Z,8.60
2023-01-06T10:52:44.227Z,8.60
2023-01-06T10:55:24.999Z,9.10
2023-01-06T10:57:54.062Z,8.70
2023-01-06T11:00:23.666Z,8.90
2023-01-06T11:03:09.099Z,9.00
2023-01-06T11:05:40.817Z,9.00
2023-01-06T11:08:15.631Z,9.10
2023-01-06T11:10:51.239Z,9.00
2023-01-06T11:13:30.210Z,9.10
2023-01-06T11:15:59.097Z,9.20
2023-01-06T11:18:30.881Z,9.20
2023-01-06T11:21:16.234Z,9.50
2023-01-06T11:23:46.532Z,9.50
2023-01-06T11:26:19.549Z,10.20
2023-01-06T11:28:53.435Z,10.90
2023-01-06T11:31:25.752Z,11.30
2023-01-06T11:34:03.664Z,11.20
2023-01-06T11:36:33.342Z,10.90
2023-01-06T11:42:52.301Z,11.30
2023-01-06T11:45:59.624Z,12.20
2023-01-06T11:48:49.761Z,12.00
2023-01-06T11:51:42.701Z,11.80
2023-01-06T11:54:35.142Z,11.60
2023-01-06T11:57:27.154Z,11.60
2023-01-06T12:00:10.444Z,11.60
2023-01-06T12:02:49.714Z,11.30
2023-01-06T12:05:36.917Z,10.70
2023-01-06T12:08:26.643Z,10.50
2023-01-06T12:11:15.489Z,10.50
2023-01-06T12:13:44.928Z,10.50
2023-01-06T12:16:33.211Z,10.60
2023-01-06T12:19:00.094Z,10.80
2023-01-06T12:21:34.692Z,11.20
2023-01-06T12:24:06.572Z,10.60
2023-01-06T12:26:35.194Z,10.50
2023-01-06T12:29:05.449Z,10.30
2023-01-06T12:31:55.938Z,10.20
2023-01-06T12:34:36.703Z,10.20
2023-01-06T12:37:21.923Z,10.10
2023-01-06T12:40:15.058Z,10.00
2023-01-06T12:42:53.698Z,9.90
2023-01-06T12:45:43.469Z,9.90
2023-01-06T12:48:32.088Z,10.10
2023-01-06T12:51:11.342Z,10.20
2023-01-06T12:54:12.371Z,10.20
2023-01-06T12:56:59.675Z,10.20
2023-01-06T12:59:46.842Z,10.20
2023-01-06T13:02:52.165Z,10.10
2023-01-06T13:05:37.634Z,10.10
2023-01-06T13:08:26.423Z,10.00
2023-01-06T13:11:23.214Z,9.90
2023-01-06T13:14:19.903Z,10.00
2023-01-06T13:16:59.361Z,10.10
2023-01-06T13:19:52.491Z,10.10
2023-01-06T13:22:47.949Z,10.10
2023-01-06T13:25:39.232Z,9.90
2023-01-06T13:28:16.024Z,9.70
2023-01-06T13:30:45.819Z,9.70
2023-01-06T13:33:37.341Z,9.60
2023-01-06T13:36:25.240Z,9.50
2023-01-06T13:39:13.800Z,9.60
2023-01-06T13:41:43.577Z,9.60
2023-01-06T13:44:18.515Z,9.40
2023-01-06T13:46:47.308Z,9.50
2023-01-06T13:49:15.182Z,9.50
2023-01-06T13:51:44.200Z,9.50
2023-01-06T13:54:46.391Z,9.60
2023-01-06T13:57:21.551Z,9.60
2023-01-06T14:00:11.062Z,9.50
2023-01-06T14:02:40.538Z,9.60
2023-01-06T14:05:30.206Z,9.40
2023-01-06T14:08:02.317Z,9.40
2023-01-06T14:10:37.498Z,9.40
2023-01-06T14:13:17.715Z,9.40
2023-01-06T14:15:55.467Z,9.40
2023-01-06T14:18:41.202Z,9.40
2023-01-06T14:21:13.677Z,9.30
2023-01-06T14:23:54.838Z,9.30
2023-01-06T14:26:42.556Z,9.30
2023-01-06T14:29:43.526Z,9.30
2023-01-06T14:32:19.287Z,9.30
2023-01-06T14:34:57.609Z,9.20
2023-01-06T14:37:32.384Z,9.20
2023-01-06T14:40:00.804Z,9.30
2023-01-06T14:42:34.847Z,9.30
2023-01-06T14:45:07.515Z,9.20
2023-01-06T14:47:42.841Z,9.20
2023-01-06T14:50:45.449Z,9.20
2023-01-06T14:53:31.379Z,9.10
2023-01-06T14:55:59.697Z,9.10
2023-01-06T14:58:37.108Z,9.10
2023-01-06T15:01:05.804Z,9.20
2023-01-06T15:03:34.679Z,9.00
2023-01-06T15:06:31.359Z,9.00
2023-01-06T15:09:12.877Z,8.80
2023-01-06T15:11:42.945Z,8.70
2023-01-06T15:14:30.010Z,8.70
2023-01-06T15:17:00.050Z,8.70
2023-01-06T15:19:27.373Z,8.60
2023-01-06T15:21:54.781Z,8.60
2023-01-06T15:24:22.803Z,8.70
2023-01-06T15:27:20.233Z,8.70
2023-01-06T15:29:55.538Z,8.80
2023-01-06T15:32:24.953Z,8.70
2023-01-06T15:34:53.943Z,8.80
2023-01-06T15:37:25.288Z,8.70
2023-01-06T15:39:52.855Z,8.90
2023-01-06T15:42:23.408Z,8.90
2023-01-06T15:45:01.510Z,8.70
2023-01-06T15:47:30.183Z,8.70
2023-01-06T15:50:03.398Z,8.70
2023-01-06T15:52:35.401Z,8.70
2023-01-06T15:55:05.569Z,8.60
2023-01-06T15:57:38.057Z,8.60
2023-01-06T16:00:19.969Z,8.90
2023-01-06T16:02:49.103Z,8.70
2023-01-06T16:05:40.282Z,8.70
2023-01-06T16:08:23.566Z,8.60
2023-01-06T16:11:08.726Z,8.70
2023-01-06T16:13:35.933Z,8.80
2023-01-06T16:16:24.612Z,8.80
2023-01-06T16:18:53.417Z,8.90
2023-01-06T16:21:20.100Z,8.90
2023-01-06T16:23:49.818Z,8.90
2023-01-06T16:26:19.842Z,8.90
2023-01-06T16:28:55.238Z,8.90
2023-01-06T16:31:36.713Z,8.90
2023-01-06T16:34:31.263Z,8.90
2023-01-06T16:36:59.519Z,8.80
2023-01-06T16:39:27.101Z,8.80
2023-01-06T16:42:00.121Z,8.80
2023-01-06T16:44:32.387Z,8.80
2023-01-06T16:47:00.716Z,8.90
2023-01-06T16:49:29.590Z,8.90
2023-01-06T16:51:56.278Z,8.90
2023-01-06T16:54:23.616Z,8.90
2023-01-06T16:56:52.248Z,9.00
2023-01-06T16:59:20.453Z,8.90
2023-01-06T17:01:48.338Z,8.90
2023-01-06T17:04:16.132Z,8.90
2023-01-06T17:06:45.340Z,9.00
2023-01-06T17:09:23.064Z,8.80
2023-01-06T17:11:54.272Z,8.70
2023-01-06T17:14:22.848Z,8.70
2023-01-06T17:16:52.773Z,8.70
2023-01-06T17:19:20.895Z,8.80
2023-01-06T17:21:49.480Z,8.80
2023-01-06T17:24:25.504Z,8.70
2023-01-06T17:27:20.511Z,8.60
2023-01-06T17:29:47.843Z,8.70
2023-01-06T17:32:22.433Z,8.70
2023-01-06T17:34:49.749Z,8.80
2023-01-06T17:37:23.493Z,8.80
2023-01-06T17:39:50.467Z,8.80
2023-01-06T17:42:17.128Z,8.80
2023-01-06T17:44:58.234Z,8.90
2023-01-06T17:47:43.636Z,8.80
2023-01-06T17:50:29.950Z,8.80
2023-01-06T17:53:30.539Z,8.70
2023-01-06T17:55:59.246Z,8.80
2023-01-06T17:58:32.023Z,8.70
2023-01-06T18:01:01.075Z,8.60
2023-01-06T18:03:32.608Z,8.50
2023-01-06T18:06:32.264Z,8.60
2023-01-06T18:09:04.778Z,8.60
2023-01-06T18:12:03.132Z,8.60
2023-01-06T18:14:38.839Z,8.60
2023-01-06T18:17:17.651Z,8.60
2023-01-06T18:19:44.421Z,8.60
2023-01-06T18:22:24.819Z,8.60
2023-01-06T18:24:55.206Z,8.60
2023-01-06T18:27:33.888Z,8.60
2023-01-06T18:30:22.370Z,8.60
2023-01-06T18:32:50.818Z,8.60
2023-01-06T18:35:27.674Z,8.60
2023-01-06T18:37:59.215Z,8.60
2023-01-06T18:40:26.027Z,8.60
2023-01-06T18:42:54.173Z,8.60
2023-01-06T18:45:39.092Z,8.50
2023-01-06T18:48:16.687Z,8.60
2023-01-06T18:50:45.548Z,8.60
2023-01-06T18:53:19.501Z,8.50
2023-01-06T18:55:55.346Z,8.60
2023-01-06T18:58:48.988Z,8.50
2023-01-06T19:01:24.614Z,8.60
2023-01-06T19:04:14.507Z,8.60
2023-01-06T19:06:45.475Z,8.60
2023-01-06T19:09:28.691Z,8.60
2023-01-06T19:12:01.072Z,8.60
2023-01-06T19:14:32.475Z,8.70
2023-01-06T19:16:59.411Z,8.70
2023-01-06T19:19:35.678Z,8.70
2023-01-06T19:22:27.080Z,8.60
2023-01-06T19:25:32.193Z,8.60
2023-01-06T19:28:04.876Z,8.70
2023-01-06T19:30:34.091Z,8.70
2023-01-06T19:33:19.727Z,8.70
2023-01-06T19:35:46.773Z,8.60
2023-01-06T19:38:43.303Z,8.60
2023-01-06T19:41:21.377Z,8.60
2023-01-06T19:43:48.705Z,8.60
2023-01-06T19:46:22.761Z,8.60
2023-01-06T19:48:50.867Z,8.60
2023-01-06T19:51:20.726Z,8.60
2023-01-06T19:53:59.814Z,8.70
2023-01-06T19:56:34.200Z,8.60
2023-01-06T19:59:02.667Z,8.60
2023-01-06T20:01:32.612Z,8.70
2023-01-06T20:04:00.275Z,8.70
2023-01-06T20:06:27.149Z,8.70
2023-01-06T20:08:54.185Z,8.70
2023-01-06T20:11:22.348Z,8.70
2023-01-06T20:13:49.672Z,8.50
2023-01-06T20:16:16.879Z,8.40
2023-01-06T20:18:43.719Z,8.50
2023-01-06T20:21:10.519Z,8.40
2023-01-06T20:23:37.209Z,8.50
2023-01-06T20:26:04.022Z,8.50
2023-01-06T20:28:30.693Z,8.50
2023-01-06T20:30:57.459Z,8.60
2023-01-06T20:33:24.269Z,8.50
2023-01-06T20:35:51.404Z,8.50
2023-01-06T20:38:18.195Z,8.40
2023-01-06T20:40:44.841Z,8.40
2023-01-06T20:43:11.631Z,8.30
2023-01-06T20:45:38.398Z,8.40
2023-01-06T20:48:05.307Z,8.30
2023-01-06T20:50:31.999Z,8.30
2023-01-06T20:52:58.707Z,8.10
2023-01-06T20:55:25.460Z,8.00
2023-01-06T20:57:52.360Z,8.10
2023-01-06T21:00:19.413Z,8.20
2023-01-06T21:02:46.172Z,8.30
2023-01-06T21:05:13.003Z,8.30
2023-01-06T21:07:39.876Z,8.20
2023-01-06T21:10:07.078Z,8.30
2023-01-06T21:12:33.881Z,8.20
2023-01-06T21:15:00.786Z,8.20
2023-01-06T21:17:27.653Z,8.30
2023-01-06T21:19:55.336Z,8.20
2023-01-06T21:22:22.304Z,8.20
2023-01-06T21:24:49.177Z,8.20
2023-01-06T21:27:16.015Z,8.30
2023-01-06T21:29:42.822Z,8.10
2023-01-06T21:32:10.087Z,8.10
2023-01-06T21:34:36.924Z,8.20
2023-01-06T21:37:03.728Z,8.20
2023-01-06T21:39:30.967Z,8.20
2023-01-06T21:42:16.421Z,8.20
2023-01-06T21:44:43.486Z,8.10
2023-01-06T21:47:11.336Z,8.10
2023-01-06T21:49:39.383Z,8.00
2023-01-06T21:52:06.298Z,8.00
2023-01-06T21:54:33.305Z,8.00
2023-01-06T21:57:00.288Z,8.00
2023-01-06T21:59:26.962Z,8.00
2023-01-06T22:01:53.735Z,8.00
2023-01-06T22:04:20.553Z,8.00
2023-01-06T22:06:47.422Z,8.00
2023-01-06T22:09:16.866Z,8.00
2023-01-06T22:11:44.989Z,7.80
2023-01-06T22:14:13.320Z,7.90
2023-01-06T22:16:41.030Z,7.80
2023-01-06T22:19:11.033Z,7.80
2023-01-06T22:21:38.557Z,7.80
2023-01-06T22:24:07.745Z,7.90
2023-01-06T22:26:34.483Z,7.90
2023-01-06T22:29:01.247Z,7.70
2023-01-06T22:31:28.172Z,7.80
2023-01-06T22:33:54.885Z,7.90
2023-01-06T22:36:21.804Z,7.90
2023-01-06T22:38:48.463Z,7.90
2023-01-06T22:41:15.149Z,7.80
2023-01-06T22:43:41.840Z,7.90
2023-01-06T22:46:08.744Z,7.80
2023-01-06T22:48:35.442Z,7.90
2023-01-06T22:51:05.199Z,7.80
2023-01-06T22:53:32.965Z,7.70
2023-01-06T22:56:06.166Z,7.80
2023-01-06T22:58:35.027Z,7.80
2023-01-06T23:01:02.428Z,7.70
2023-01-06T23:03:29.271Z,7.60
2023-01-06T23:05:56.955Z,7.60
2023-01-06T23:08:24.204Z,7.60
2023-01-06T23:10:50.967Z,7.60
2023-01-06T23:13:17.712Z,7.70
2023-01-06T23:15:45.628Z,7.70
2023-01-06T23:18:12.375Z,7.70
2023-01-06T23:20:39.028Z,7.60
2023-01-06T23:23:05.793Z,7.70
2023-01-06T23:25:32.535Z,7.70
2023-01-06T23:27:59.213Z,7.80
2023-01-06T23:30:25.935Z,7.80
2023-01-06T23:32:52.876Z,7.80
2023-01-06T23:35:19.596Z,7.90
2023-01-06T23:37:46.284Z,7.80
2023-01-06T23:40:13.213Z,7.70
2023-01-06T23:42:48.011Z,7.70
2023-01-06T23:45:15.536Z,7.70
2023-01-06T23:47:42.257Z,7.80
2023-01-06T23:50:09.539Z,7.70
2023-01-06T23:52:36.238Z,7.70
2023-01-06T23:55:03.027Z,7.80
2023-01-06T23:57:29.713Z,7.90
2023-01-06T23:59:56.374Z,7.90
